sensor_id;sensor_type;location;lat;lon;timestamp;P1;durP1;ratioP1;P2;durP2;ratioP2
69527;SDS011;57136;51.986;4.468;2022-07-24T00:00:05;22.38;;;16.55;;
69527;SDS011;57136;51.986;4.468;2022-07-24T00:02:32;20.92;;;15.00;;
69527;SDS011;57136;51.986;4.468;2022-07-24T00:04:57;22.05;;;16.30;;
69527;SDS011;57136;51.986;4.468;2022-07-24T00:07:25;19.85;;;15.07;;
69527;SDS011;57136;51.986;4.468;2022-07-24T00:09:50;23.65;;;16.45;;
69527;SDS011;57136;51.986;4.468;2022-07-24T00:12:16;21.83;;;16.48;;
69527;SDS011;57136;51.986;4.468;2022-07-24T00:14:41;16.98;;;15.18;;
69527;SDS011;57136;51.986;4.468;2022-07-24T00:17:06;16.52;;;14.50;;
69527;SDS011;57136;51.986;4.468;2022-07-24T00:19:32;20.42;;;14.25;;
69527;SDS011;57136;51.986;4.468;2022-07-24T00:21:57;18.98;;;14.02;;
69527;SDS011;57136;51.986;4.468;2022-07-24T00:24:24;23.58;;;15.70;;
69527;SDS011;57136;51.986;4.468;2022-07-24T00:26:50;21.08;;;16.15;;
69527;SDS011;57136;51.986;4.468;2022-07-24T00:29:15;20.60;;;14.82;;
69527;SDS011;57136;51.986;4.468;2022-07-24T00:31:40;22.75;;;16.15;;
69527;SDS011;57136;51.986;4.468;2022-07-24T00:34:06;21.13;;;16.90;;
69527;SDS011;57136;51.986;4.468;2022-07-24T00:36:31;20.58;;;17.05;;
69527;SDS011;57136;51.986;4.468;2022-07-24T00:38:56;22.90;;;17.48;;
69527;SDS011;57136;51.986;4.468;2022-07-24T00:41:22;20.75;;;15.85;;
69527;SDS011;57136;51.986;4.468;2022-07-24T00:44:20;25.67;;;17.63;;
69527;SDS011;57136;51.986;4.468;2022-07-24T00:46:41;28.90;;;17.00;;
69527;SDS011;57136;51.986;4.468;2022-07-24T00:49:11;26.10;;;16.50;;
69527;SDS011;57136;51.986;4.468;2022-07-24T00:51:41;21.65;;;17.58;;
69527;SDS011;57136;51.986;4.468;2022-07-24T00:54:07;25.98;;;16.33;;
69527;SDS011;57136;51.986;4.468;2022-07-24T00:56:35;21.98;;;14.35;;
69527;SDS011;57136;51.986;4.468;2022-07-24T00:59:00;21.23;;;14.40;;
69527;SDS011;57136;51.986;4.468;2022-07-24T01:01:26;24.15;;;14.50;;
69527;SDS011;57136;51.986;4.468;2022-07-24T01:03:52;17.55;;;13.13;;
69527;SDS011;57136;51.986;4.468;2022-07-24T01:06:18;19.52;;;12.20;;
69527;SDS011;57136;51.986;4.468;2022-07-24T01:08:45;15.23;;;10.60;;
69527;SDS011;57136;51.986;4.468;2022-07-24T01:11:11;15.00;;;10.48;;
69527;SDS011;57136;51.986;4.468;2022-07-24T01:13:37;14.68;;;9.82;;
69527;SDS011;57136;51.986;4.468;2022-07-24T01:16:03;13.88;;;9.65;;
69527;SDS011;57136;51.986;4.468;2022-07-24T01:18:29;16.73;;;9.00;;
69527;SDS011;57136;51.986;4.468;2022-07-24T01:20:54;14.27;;;9.32;;
69527;SDS011;57136;51.986;4.468;2022-07-24T01:23:20;14.57;;;9.02;;
69527;SDS011;57136;51.986;4.468;2022-07-24T01:25:46;12.90;;;8.82;;
69527;SDS011;57136;51.986;4.468;2022-07-24T01:28:11;15.23;;;8.15;;
69527;SDS011;57136;51.986;4.468;2022-07-24T01:30:37;12.45;;;8.02;;
69527;SDS011;57136;51.986;4.468;2022-07-24T01:33:02;14.18;;;8.30;;
69527;SDS011;57136;51.986;4.468;2022-07-24T01:35:27;11.27;;;7.47;;
69527;SDS011;57136;51.986;4.468;2022-07-24T01:37:53;12.25;;;7.55;;
69527;SDS011;57136;51.986;4.468;2022-07-24T01:40:20;8.93;;;7.10;;
69527;SDS011;57136;51.986;4.468;2022-07-24T01:42:46;12.32;;;7.05;;
69527;SDS011;57136;51.986;4.468;2022-07-24T01:45:12;10.75;;;7.38;;
69527;SDS011;57136;51.986;4.468;2022-07-24T01:47:38;12.73;;;7.75;;
69527;SDS011;57136;51.986;4.468;2022-07-24T01:50:04;11.80;;;7.65;;
69527;SDS011;57136;51.986;4.468;2022-07-24T01:52:30;19.60;;;7.68;;
69527;SDS011;57136;51.986;4.468;2022-07-24T01:54:55;12.85;;;7.90;;
69527;SDS011;57136;51.986;4.468;2022-07-24T01:57:21;9.38;;;6.97;;
69527;SDS011;57136;51.986;4.468;2022-07-24T01:59:46;10.80;;;7.15;;
69527;SDS011;57136;51.986;4.468;2022-07-24T02:02:11;9.15;;;6.70;;
69527;SDS011;57136;51.986;4.468;2022-07-24T02:04:37;10.07;;;6.75;;
69527;SDS011;57136;51.986;4.468;2022-07-24T02:07:02;8.73;;;7.15;;
69527;SDS011;57136;51.986;4.468;2022-07-24T02:09:27;11.73;;;7.10;;
69527;SDS011;57136;51.986;4.468;2022-07-24T02:11:53;9.45;;;6.80;;
69527;SDS011;57136;51.986;4.468;2022-07-24T02:14:19;46.20;;;28.25;;
69527;SDS011;57136;51.986;4.468;2022-07-24T02:16:45;142.50;;;90.72;;
69527;SDS011;57136;51.986;4.468;2022-07-24T02:19:10;58.03;;;37.33;;
69527;SDS011;57136;51.986;4.468;2022-07-24T02:21:36;21.65;;;14.88;;
69527;SDS011;57136;51.986;4.468;2022-07-24T02:24:02;13.52;;;8.77;;
69527;SDS011;57136;51.986;4.468;2022-07-24T02:26:27;13.65;;;9.82;;
69527;SDS011;57136;51.986;4.468;2022-07-24T02:28:53;11.52;;;7.43;;
69527;SDS011;57136;51.986;4.468;2022-07-24T02:31:18;13.00;;;7.32;;
69527;SDS011;57136;51.986;4.468;2022-07-24T02:33:44;10.35;;;6.63;;
69527;SDS011;57136;51.986;4.468;2022-07-24T02:36:10;9.85;;;6.78;;
69527;SDS011;57136;51.986;4.468;2022-07-24T02:38:35;11.32;;;6.22;;
69527;SDS011;57136;51.986;4.468;2022-07-24T02:41:01;9.73;;;6.75;;
69527;SDS011;57136;51.986;4.468;2022-07-24T02:43:27;8.43;;;6.57;;
69527;SDS011;57136;51.986;4.468;2022-07-24T02:45:52;10.18;;;7.30;;
69527;SDS011;57136;51.986;4.468;2022-07-24T02:48:18;10.73;;;7.05;;
69527;SDS011;57136;51.986;4.468;2022-07-24T02:50:43;8.82;;;5.97;;
69527;SDS011;57136;51.986;4.468;2022-07-24T02:53:08;11.57;;;7.20;;
69527;SDS011;57136;51.986;4.468;2022-07-24T02:55:34;11.27;;;6.65;;
69527;SDS011;57136;51.986;4.468;2022-07-24T02:57:59;14.98;;;6.70;;
69527;SDS011;57136;51.986;4.468;2022-07-24T03:00:25;10.60;;;7.38;;
69527;SDS011;57136;51.986;4.468;2022-07-24T03:02:50;11.63;;;7.75;;
69527;SDS011;57136;51.986;4.468;2022-07-24T03:05:16;14.07;;;7.82;;
69527;SDS011;57136;51.986;4.468;2022-07-24T03:07:42;11.10;;;7.18;;
69527;SDS011;57136;51.986;4.468;2022-07-24T03:10:08;11.55;;;7.28;;
69527;SDS011;57136;51.986;4.468;2022-07-24T03:12:35;11.60;;;7.43;;
69527;SDS011;57136;51.986;4.468;2022-07-24T03:15:00;9.48;;;7.10;;
69527;SDS011;57136;51.986;4.468;2022-07-24T03:17:26;12.43;;;7.05;;
69527;SDS011;57136;51.986;4.468;2022-07-24T03:19:51;11.02;;;6.68;;
69527;SDS011;57136;51.986;4.468;2022-07-24T03:22:17;13.32;;;7.13;;
69527;SDS011;57136;51.986;4.468;2022-07-24T03:24:42;11.95;;;7.70;;
69527;SDS011;57136;51.986;4.468;2022-07-24T03:27:07;10.57;;;6.47;;
69527;SDS011;57136;51.986;4.468;2022-07-24T03:29:33;8.18;;;5.97;;
69527;SDS011;57136;51.986;4.468;2022-07-24T03:31:58;10.25;;;6.80;;
69527;SDS011;57136;51.986;4.468;2022-07-24T03:34:24;8.25;;;5.78;;
69527;SDS011;57136;51.986;4.468;2022-07-24T03:36:49;9.18;;;5.65;;
69527;SDS011;57136;51.986;4.468;2022-07-24T03:39:15;6.75;;;5.55;;
69527;SDS011;57136;51.986;4.468;2022-07-24T03:41:40;7.63;;;5.43;;
69527;SDS011;57136;51.986;4.468;2022-07-24T03:44:06;9.20;;;5.80;;
69527;SDS011;57136;51.986;4.468;2022-07-24T03:46:31;8.13;;;5.28;;
69527;SDS011;57136;51.986;4.468;2022-07-24T03:48:57;12.43;;;6.10;;
69527;SDS011;57136;51.986;4.468;2022-07-24T03:51:22;8.70;;;6.43;;
69527;SDS011;57136;51.986;4.468;2022-07-24T03:53:48;9.90;;;6.03;;
69527;SDS011;57136;51.986;4.468;2022-07-24T03:56:13;9.20;;;5.63;;
69527;SDS011;57136;51.986;4.468;2022-07-24T03:58:40;8.00;;;6.20;;
69527;SDS011;57136;51.986;4.468;2022-07-24T04:01:06;10.93;;;6.78;;
69527;SDS011;57136;51.986;4.468;2022-07-24T04:03:31;8.82;;;6.20;;
69527;SDS011;57136;51.986;4.468;2022-07-24T04:05:57;9.13;;;6.00;;
69527;SDS011;57136;51.986;4.468;2022-07-24T04:08:22;7.38;;;5.97;;
69527;SDS011;57136;51.986;4.468;2022-07-24T04:10:47;7.68;;;6.18;;
69527;SDS011;57136;51.986;4.468;2022-07-24T04:13:13;7.57;;;5.72;;
69527;SDS011;57136;51.986;4.468;2022-07-24T04:15:38;8.95;;;5.78;;
69527;SDS011;57136;51.986;4.468;2022-07-24T04:18:03;8.25;;;5.30;;
69527;SDS011;57136;51.986;4.468;2022-07-24T04:20:29;10.23;;;5.22;;
69527;SDS011;57136;51.986;4.468;2022-07-24T04:22:54;7.82;;;5.40;;
69527;SDS011;57136;51.986;4.468;2022-07-24T04:25:19;9.15;;;5.30;;
69527;SDS011;57136;51.986;4.468;2022-07-24T04:27:45;9.15;;;5.28;;
69527;SDS011;57136;51.986;4.468;2022-07-24T04:30:12;7.35;;;5.03;;
69527;SDS011;57136;51.986;4.468;2022-07-24T04:32:37;7.57;;;4.70;;
69527;SDS011;57136;51.986;4.468;2022-07-24T04:35:04;5.90;;;4.03;;
69527;SDS011;57136;51.986;4.468;2022-07-24T04:37:30;5.65;;;4.60;;
69527;SDS011;57136;51.986;4.468;2022-07-24T04:39:56;7.35;;;4.18;;
69527;SDS011;57136;51.986;4.468;2022-07-24T04:42:21;7.68;;;3.80;;
69527;SDS011;57136;51.986;4.468;2022-07-24T04:44:46;5.88;;;4.20;;
69527;SDS011;57136;51.986;4.468;2022-07-24T04:47:11;7.50;;;4.25;;
69527;SDS011;57136;51.986;4.468;2022-07-24T04:49:37;6.35;;;4.45;;
69527;SDS011;57136;51.986;4.468;2022-07-24T04:52:02;6.20;;;3.90;;
69527;SDS011;57136;51.986;4.468;2022-07-24T04:54:28;6.78;;;4.07;;
69527;SDS011;57136;51.986;4.468;2022-07-24T04:56:53;10.85;;;4.50;;
69527;SDS011;57136;51.986;4.468;2022-07-24T04:59:18;5.90;;;3.67;;
69527;SDS011;57136;51.986;4.468;2022-07-24T05:01:43;4.13;;;3.45;;
69527;SDS011;57136;51.986;4.468;2022-07-24T05:04:09;5.65;;;3.63;;
69527;SDS011;57136;51.986;4.468;2022-07-24T05:06:34;5.93;;;3.47;;
69527;SDS011;57136;51.986;4.468;2022-07-24T05:09:00;5.15;;;3.33;;
69527;SDS011;57136;51.986;4.468;2022-07-24T05:11:25;4.68;;;3.35;;
69527;SDS011;57136;51.986;4.468;2022-07-24T05:13:51;5.10;;;3.30;;
69527;SDS011;57136;51.986;4.468;2022-07-24T05:16:16;3.78;;;3.38;;
69527;SDS011;57136;51.986;4.468;2022-07-24T05:18:41;4.88;;;3.40;;
69527;SDS011;57136;51.986;4.468;2022-07-24T05:21:07;4.70;;;3.00;;
69527;SDS011;57136;51.986;4.468;2022-07-24T05:23:32;4.35;;;3.45;;
69527;SDS011;57136;51.986;4.468;2022-07-24T05:25:58;5.28;;;3.30;;
69527;SDS011;57136;51.986;4.468;2022-07-24T05:28:23;4.78;;;2.97;;
69527;SDS011;57136;51.986;4.468;2022-07-24T05:30:49;5.85;;;3.63;;
69527;SDS011;57136;51.986;4.468;2022-07-24T05:33:14;5.00;;;3.45;;
69527;SDS011;57136;51.986;4.468;2022-07-24T05:35:39;6.32;;;3.65;;
69527;SDS011;57136;51.986;4.468;2022-07-24T05:38:04;4.82;;;3.40;;
69527;SDS011;57136;51.986;4.468;2022-07-24T05:40:30;4.55;;;3.47;;
69527;SDS011;57136;51.986;4.468;2022-07-24T05:42:55;5.53;;;3.53;;
69527;SDS011;57136;51.986;4.468;2022-07-24T05:45:21;4.00;;;3.40;;
69527;SDS011;57136;51.986;4.468;2022-07-24T05:47:46;6.93;;;3.50;;
69527;SDS011;57136;51.986;4.468;2022-07-24T05:50:12;5.32;;;3.67;;
69527;SDS011;57136;51.986;4.468;2022-07-24T05:52:39;5.30;;;3.55;;
69527;SDS011;57136;51.986;4.468;2022-07-24T05:55:06;4.28;;;3.30;;
69527;SDS011;57136;51.986;4.468;2022-07-24T05:57:33;5.07;;;3.45;;
69527;SDS011;57136;51.986;4.468;2022-07-24T05:59:58;7.93;;;3.30;;
69527;SDS011;57136;51.986;4.468;2022-07-24T06:02:24;6.40;;;3.33;;
69527;SDS011;57136;51.986;4.468;2022-07-24T06:04:49;5.75;;;3.30;;
69527;SDS011;57136;51.986;4.468;2022-07-24T06:07:14;5.88;;;3.45;;
69527;SDS011;57136;51.986;4.468;2022-07-24T06:09:39;4.03;;;3.35;;
69527;SDS011;57136;51.986;4.468;2022-07-24T06:12:05;4.40;;;3.47;;
69527;SDS011;57136;51.986;4.468;2022-07-24T06:14:31;5.28;;;3.20;;
69527;SDS011;57136;51.986;4.468;2022-07-24T06:16:57;5.35;;;3.58;;
69527;SDS011;57136;51.986;4.468;2022-07-24T06:19:23;3.88;;;2.78;;
69527;SDS011;57136;51.986;4.468;2022-07-24T06:21:48;6.45;;;3.40;;
69527;SDS011;57136;51.986;4.468;2022-07-24T06:24:14;5.05;;;3.35;;
69527;SDS011;57136;51.986;4.468;2022-07-24T06:26:39;6.05;;;3.72;;
69527;SDS011;57136;51.986;4.468;2022-07-24T06:29:04;4.88;;;3.50;;
69527;SDS011;57136;51.986;4.468;2022-07-24T06:31:30;4.40;;;3.33;;
69527;SDS011;57136;51.986;4.468;2022-07-24T06:33:55;4.78;;;3.05;;
69527;SDS011;57136;51.986;4.468;2022-07-24T06:36:21;3.90;;;3.10;;
69527;SDS011;57136;51.986;4.468;2022-07-24T06:38:46;4.25;;;3.03;;
69527;SDS011;57136;51.986;4.468;2022-07-24T06:41:14;3.17;;;2.80;;
69527;SDS011;57136;51.986;4.468;2022-07-24T06:43:39;4.68;;;3.33;;
69527;SDS011;57136;51.986;4.468;2022-07-24T06:46:05;5.80;;;3.13;;
69527;SDS011;57136;51.986;4.468;2022-07-24T06:48:30;3.53;;;2.70;;
69527;SDS011;57136;51.986;4.468;2022-07-24T06:50:56;5.40;;;3.38;;
69527;SDS011;57136;51.986;4.468;2022-07-24T06:53:21;4.82;;;2.90;;
69527;SDS011;57136;51.986;4.468;2022-07-24T06:55:46;3.30;;;2.58;;
69527;SDS011;57136;51.986;4.468;2022-07-24T06:58:12;6.43;;;3.10;;
69527;SDS011;57136;51.986;4.468;2022-07-24T07:00:38;3.22;;;2.55;;
69527;SDS011;57136;51.986;4.468;2022-07-24T07:03:04;4.57;;;3.33;;
69527;SDS011;57136;51.986;4.468;2022-07-24T07:05:30;4.60;;;2.80;;
69527;SDS011;57136;51.986;4.468;2022-07-24T07:07:56;5.30;;;2.92;;
69527;SDS011;57136;51.986;4.468;2022-07-24T07:10:21;3.63;;;2.20;;
69527;SDS011;57136;51.986;4.468;2022-07-24T07:12:46;4.53;;;2.50;;
69527;SDS011;57136;51.986;4.468;2022-07-24T07:15:12;5.32;;;2.63;;
69527;SDS011;57136;51.986;4.468;2022-07-24T07:17:39;5.60;;;2.78;;
69527;SDS011;57136;51.986;4.468;2022-07-24T07:20:07;3.08;;;2.25;;
69527;SDS011;57136;51.986;4.468;2022-07-24T07:22:35;3.03;;;2.28;;
69527;SDS011;57136;51.986;4.468;2022-07-24T07:25:00;3.03;;;2.72;;
69527;SDS011;57136;51.986;4.468;2022-07-24T07:27:26;3.42;;;2.60;;
69527;SDS011;57136;51.986;4.468;2022-07-24T07:29:51;3.80;;;2.78;;
69527;SDS011;57136;51.986;4.468;2022-07-24T07:32:16;4.95;;;2.88;;
69527;SDS011;57136;51.986;4.468;2022-07-24T07:34:42;2.97;;;2.63;;
69527;SDS011;57136;51.986;4.468;2022-07-24T07:37:08;3.70;;;2.67;;
69527;SDS011;57136;51.986;4.468;2022-07-24T07:39:33;3.00;;;2.70;;
69527;SDS011;57136;51.986;4.468;2022-07-24T07:41:58;2.85;;;2.10;;
69527;SDS011;57136;51.986;4.468;2022-07-24T07:44:24;4.88;;;2.40;;
69527;SDS011;57136;51.986;4.468;2022-07-24T07:46:49;3.47;;;2.42;;
69527;SDS011;57136;51.986;4.468;2022-07-24T07:49:14;3.75;;;2.47;;
69527;SDS011;57136;51.986;4.468;2022-07-24T07:51:40;4.10;;;2.65;;
69527;SDS011;57136;51.986;4.468;2022-07-24T07:54:06;3.88;;;2.70;;
69527;SDS011;57136;51.986;4.468;2022-07-24T07:56:32;2.63;;;2.42;;
69527;SDS011;57136;51.986;4.468;2022-07-24T07:58:57;2.83;;;2.22;;
69527;SDS011;57136;51.986;4.468;2022-07-24T08:01:23;3.58;;;2.22;;
69527;SDS011;57136;51.986;4.468;2022-07-24T08:03:48;3.50;;;2.50;;
69527;SDS011;57136;51.986;4.468;2022-07-24T08:06:14;2.53;;;2.20;;
69527;SDS011;57136;51.986;4.468;2022-07-24T08:08:39;4.45;;;2.75;;
69527;SDS011;57136;51.986;4.468;2022-07-24T08:11:05;2.55;;;2.10;;
69527;SDS011;57136;51.986;4.468;2022-07-24T08:13:30;2.58;;;2.30;;
69527;SDS011;57136;51.986;4.468;2022-07-24T08:15:55;3.80;;;2.53;;
69527;SDS011;57136;51.986;4.468;2022-07-24T08:18:21;3.22;;;2.22;;
69527;SDS011;57136;51.986;4.468;2022-07-24T08:20:46;4.93;;;2.53;;
69527;SDS011;57136;51.986;4.468;2022-07-24T08:23:12;2.30;;;2.10;;
69527;SDS011;57136;51.986;4.468;2022-07-24T08:25:37;3.38;;;2.10;;
69527;SDS011;57136;51.986;4.468;2022-07-24T08:28:03;3.05;;;2.03;;
69527;SDS011;57136;51.986;4.468;2022-07-24T08:30:28;2.90;;;2.60;;
69527;SDS011;57136;51.986;4.468;2022-07-24T08:32:54;1.95;;;1.75;;
69527;SDS011;57136;51.986;4.468;2022-07-24T08:35:19;2.67;;;2.13;;
69527;SDS011;57136;51.986;4.468;2022-07-24T08:37:45;2.97;;;2.13;;
69527;SDS011;57136;51.986;4.468;2022-07-24T08:40:11;2.75;;;2.33;;
69527;SDS011;57136;51.986;4.468;2022-07-24T08:42:37;2.40;;;2.20;;
69527;SDS011;57136;51.986;4.468;2022-07-24T08:45:03;5.47;;;2.65;;
69527;SDS011;57136;51.986;4.468;2022-07-24T08:47:29;3.85;;;2.33;;
69527;SDS011;57136;51.986;4.468;2022-07-24T08:49:57;5.97;;;4.90;;
69527;SDS011;57136;51.986;4.468;2022-07-24T08:52:23;2.88;;;2.40;;
69527;SDS011;57136;51.986;4.468;2022-07-24T08:54:49;5.13;;;2.40;;
69527;SDS011;57136;51.986;4.468;2022-07-24T08:57:14;2.72;;;2.28;;
69527;SDS011;57136;51.986;4.468;2022-07-24T08:59:40;3.50;;;2.40;;
69527;SDS011;57136;51.986;4.468;2022-07-24T09:02:06;3.15;;;2.30;;
69527;SDS011;57136;51.986;4.468;2022-07-24T09:07:17;2.97;;;2.45;;
69527;SDS011;57136;51.986;4.468;2022-07-24T09:09:44;3.03;;;2.08;;
69527;SDS011;57136;51.986;4.468;2022-07-24T09:12:21;4.13;;;2.40;;
69527;SDS011;57136;51.986;4.468;2022-07-24T09:14:47;2.40;;;2.20;;
69527;SDS011;57136;51.986;4.468;2022-07-24T09:17:14;6.03;;;2.58;;
69527;SDS011;57136;51.986;4.468;2022-07-24T09:19:45;3.00;;;2.40;;
69527;SDS011;57136;51.986;4.468;2022-07-24T09:27:32;2.33;;;1.95;;
69527;SDS011;57136;51.986;4.468;2022-07-24T09:30:03;3.70;;;2.25;;
69527;SDS011;57136;51.986;4.468;2022-07-24T09:32:30;2.30;;;2.10;;
69527;SDS011;57136;51.986;4.468;2022-07-24T09:34:55;2.85;;;2.30;;
69527;SDS011;57136;51.986;4.468;2022-07-24T09:37:21;2.70;;;2.40;;
69527;SDS011;57136;51.986;4.468;2022-07-24T09:39:47;4.20;;;2.38;;
69527;SDS011;57136;51.986;4.468;2022-07-24T09:42:13;2.85;;;2.15;;
69527;SDS011;57136;51.986;4.468;2022-07-24T09:44:38;3.78;;;2.20;;
69527;SDS011;57136;51.986;4.468;2022-07-24T09:47:05;3.45;;;2.20;;
69527;SDS011;57136;51.986;4.468;2022-07-24T09:49:33;4.15;;;2.20;;
69527;SDS011;57136;51.986;4.468;2022-07-24T09:54:31;3.75;;;2.25;;
69527;SDS011;57136;51.986;4.468;2022-07-24T09:57:21;3.20;;;2.13;;
69527;SDS011;57136;51.986;4.468;2022-07-24T09:59:54;2.95;;;2.13;;
69527;SDS011;57136;51.986;4.468;2022-07-24T10:02:26;3.42;;;2.10;;
69527;SDS011;57136;51.986;4.468;2022-07-24T10:04:52;2.67;;;2.40;;
69527;SDS011;57136;51.986;4.468;2022-07-24T10:07:20;2.88;;;2.20;;
69527;SDS011;57136;51.986;4.468;2022-07-24T10:09:47;2.47;;;2.28;;
69527;SDS011;57136;51.986;4.468;2022-07-24T10:12:15;3.08;;;2.00;;
69527;SDS011;57136;51.986;4.468;2022-07-24T10:14:43;3.90;;;2.30;;
69527;SDS011;57136;51.986;4.468;2022-07-24T10:17:10;5.82;;;2.47;;
69527;SDS011;57136;51.986;4.468;2022-07-24T10:19:46;3.35;;;2.08;;
69527;SDS011;57136;51.986;4.468;2022-07-24T10:22:15;2.35;;;2.15;;
69527;SDS011;57136;51.986;4.468;2022-07-24T10:24:51;2.17;;;1.85;;
69527;SDS011;57136;51.986;4.468;2022-07-24T10:29:58;4.75;;;2.20;;
69527;SDS011;57136;51.986;4.468;2022-07-24T10:32:27;2.50;;;2.20;;
69527;SDS011;57136;51.986;4.468;2022-07-24T10:35:04;3.03;;;2.15;;
69527;SDS011;57136;51.986;4.468;2022-07-24T10:40:18;3.73;;;2.30;;
69527;SDS011;57136;51.986;4.468;2022-07-24T10:45:39;6.03;;;2.22;;
69527;SDS011;57136;51.986;4.468;2022-07-24T10:53:29;2.85;;;2.10;;
69527;SDS011;57136;51.986;4.468;2022-07-24T10:58:51;3.00;;;2.40;;
69527;SDS011;57136;51.986;4.468;2022-07-24T11:04:04;3.28;;;2.40;;
69527;SDS011;57136;51.986;4.468;2022-07-24T11:06:46;2.90;;;2.45;;
69527;SDS011;57136;51.986;4.468;2022-07-24T11:09:13;3.63;;;2.60;;
69527;SDS011;57136;51.986;4.468;2022-07-24T11:11:40;3.78;;;2.63;;
69527;SDS011;57136;51.986;4.468;2022-07-24T11:14:18;4.22;;;2.63;;
69527;SDS011;57136;51.986;4.468;2022-07-24T11:16:50;4.17;;;2.83;;
69527;SDS011;57136;51.986;4.468;2022-07-24T11:21:43;4.05;;;2.90;;
69527;SDS011;57136;51.986;4.468;2022-07-24T11:26:55;3.05;;;2.63;;
69527;SDS011;57136;51.986;4.468;2022-07-24T11:31:59;3.55;;;2.95;;
69527;SDS011;57136;51.986;4.468;2022-07-24T11:34:27;3.95;;;2.60;;
69527;SDS011;57136;51.986;4.468;2022-07-24T11:36:55;3.75;;;2.92;;
69527;SDS011;57136;51.986;4.468;2022-07-24T11:41:54;5.28;;;2.90;;
69527;SDS011;57136;51.986;4.468;2022-07-24T11:44:22;4.35;;;2.47;;
69527;SDS011;57136;51.986;4.468;2022-07-24T11:46:54;4.07;;;2.63;;
69527;SDS011;57136;51.986;4.468;2022-07-24T11:49:22;5.30;;;3.03;;
69527;SDS011;57136;51.986;4.468;2022-07-24T11:51:49;6.40;;;3.25;;
69527;SDS011;57136;51.986;4.468;2022-07-24T11:54:22;5.30;;;2.90;;
69527;SDS011;57136;51.986;4.468;2022-07-24T11:56:50;3.72;;;2.45;;
69527;SDS011;57136;51.986;4.468;2022-07-24T11:59:29;4.10;;;2.20;;
69527;SDS011;57136;51.986;4.468;2022-07-24T12:04:35;3.83;;;2.70;;
69527;SDS011;57136;51.986;4.468;2022-07-24T12:07:05;3.92;;;2.70;;
69527;SDS011;57136;51.986;4.468;2022-07-24T12:09:32;2.80;;;2.40;;
69527;SDS011;57136;51.986;4.468;2022-07-24T12:11:57;2.58;;;2.33;;
69527;SDS011;57136;51.986;4.468;2022-07-24T12:14:23;4.47;;;2.60;;
69527;SDS011;57136;51.986;4.468;2022-07-24T12:16:52;3.00;;;2.38;;
69527;SDS011;57136;51.986;4.468;2022-07-24T12:19:24;4.15;;;2.78;;
69527;SDS011;57136;51.986;4.468;2022-07-24T12:21:50;2.70;;;2.30;;
69527;SDS011;57136;51.986;4.468;2022-07-24T12:24:17;3.38;;;2.40;;
69527;SDS011;57136;51.986;4.468;2022-07-24T12:29:19;3.33;;;2.30;;
69527;SDS011;57136;51.986;4.468;2022-07-24T12:31:46;3.85;;;2.50;;
69527;SDS011;57136;51.986;4.468;2022-07-24T12:34:12;2.70;;;2.38;;
69527;SDS011;57136;51.986;4.468;2022-07-24T12:36:37;3.97;;;2.40;;
69527;SDS011;57136;51.986;4.468;2022-07-24T12:39:04;3.35;;;2.45;;
69527;SDS011;57136;51.986;4.468;2022-07-24T12:41:30;3.13;;;2.25;;
69527;SDS011;57136;51.986;4.468;2022-07-24T12:43:57;3.08;;;2.70;;
69527;SDS011;57136;51.986;4.468;2022-07-24T12:49:00;4.22;;;2.75;;
69527;SDS011;57136;51.986;4.468;2022-07-24T12:51:43;3.97;;;2.58;;
69527;SDS011;57136;51.986;4.468;2022-07-24T12:56:56;2.85;;;2.28;;
69527;SDS011;57136;51.986;4.468;2022-07-24T12:59:45;4.00;;;2.20;;
69527;SDS011;57136;51.986;4.468;2022-07-24T13:04:40;3.22;;;2.50;;
69527;SDS011;57136;51.986;4.468;2022-07-24T13:07:08;4.03;;;3.10;;
69527;SDS011;57136;51.986;4.468;2022-07-24T13:09:34;3.53;;;2.83;;
69527;SDS011;57136;51.986;4.468;2022-07-24T13:12:00;5.13;;;3.30;;
69527;SDS011;57136;51.986;4.468;2022-07-24T13:14:25;3.25;;;2.95;;
69527;SDS011;57136;51.986;4.468;2022-07-24T13:16:52;3.47;;;2.65;;
69527;SDS011;57136;51.986;4.468;2022-07-24T13:19:18;3.88;;;3.22;;
69527;SDS011;57136;51.986;4.468;2022-07-24T13:21:45;3.72;;;2.45;;
69527;SDS011;57136;51.986;4.468;2022-07-24T13:24:12;4.82;;;2.70;;
69527;SDS011;57136;51.986;4.468;2022-07-24T13:26:39;4.18;;;3.00;;
69527;SDS011;57136;51.986;4.468;2022-07-24T13:29:05;3.45;;;2.85;;
69527;SDS011;57136;51.986;4.468;2022-07-24T13:31:31;4.90;;;2.70;;
69527;SDS011;57136;51.986;4.468;2022-07-24T13:33:57;3.58;;;2.70;;
69527;SDS011;57136;51.986;4.468;2022-07-24T13:36:22;4.35;;;2.78;;
69527;SDS011;57136;51.986;4.468;2022-07-24T13:38:48;3.85;;;2.92;;
69527;SDS011;57136;51.986;4.468;2022-07-24T13:41:13;2.78;;;2.47;;
69527;SDS011;57136;51.986;4.468;2022-07-24T13:43:39;3.78;;;2.65;;
69527;SDS011;57136;51.986;4.468;2022-07-24T13:46:05;4.20;;;3.08;;
69527;SDS011;57136;51.986;4.468;2022-07-24T13:48:31;2.92;;;2.72;;
69527;SDS011;57136;51.986;4.468;2022-07-24T13:50:56;4.57;;;3.00;;
69527;SDS011;57136;51.986;4.468;2022-07-24T13:53:22;5.13;;;3.20;;
69527;SDS011;57136;51.986;4.468;2022-07-24T13:55:48;3.63;;;2.78;;
69527;SDS011;57136;51.986;4.468;2022-07-24T13:58:14;3.92;;;2.55;;
69527;SDS011;57136;51.986;4.468;2022-07-24T14:00:39;3.60;;;2.50;;
69527;SDS011;57136;51.986;4.468;2022-07-24T14:03:06;3.50;;;2.92;;
69527;SDS011;57136;51.986;4.468;2022-07-24T14:05:31;4.82;;;2.95;;
69527;SDS011;57136;51.986;4.468;2022-07-24T14:07:57;5.88;;;3.13;;
69527;SDS011;57136;51.986;4.468;2022-07-24T14:10:22;3.20;;;2.50;;
69527;SDS011;57136;51.986;4.468;2022-07-24T14:12:48;4.78;;;2.78;;
69527;SDS011;57136;51.986;4.468;2022-07-24T14:15:13;2.75;;;2.55;;
69527;SDS011;57136;51.986;4.468;2022-07-24T14:17:40;5.85;;;3.03;;
69527;SDS011;57136;51.986;4.468;2022-07-24T14:20:07;5.75;;;3.50;;
69527;SDS011;57136;51.986;4.468;2022-07-24T14:22:34;2.92;;;2.72;;
69527;SDS011;57136;51.986;4.468;2022-07-24T14:24:59;4.13;;;2.78;;
69527;SDS011;57136;51.986;4.468;2022-07-24T14:27:25;3.30;;;2.70;;
69527;SDS011;57136;51.986;4.468;2022-07-24T14:29:51;4.82;;;2.67;;
69527;SDS011;57136;51.986;4.468;2022-07-24T14:32:16;6.03;;;3.03;;
69527;SDS011;57136;51.986;4.468;2022-07-24T14:34:41;4.22;;;3.00;;
69527;SDS011;57136;51.986;4.468;2022-07-24T14:37:07;4.45;;;2.63;;
69527;SDS011;57136;51.986;4.468;2022-07-24T14:39:35;3.45;;;2.78;;
69527;SDS011;57136;51.986;4.468;2022-07-24T14:42:01;5.30;;;2.92;;
69527;SDS011;57136;51.986;4.468;2022-07-24T14:44:27;5.05;;;2.50;;
69527;SDS011;57136;51.986;4.468;2022-07-24T14:46:52;4.35;;;2.80;;
69527;SDS011;57136;51.986;4.468;2022-07-24T14:49:24;3.75;;;2.83;;
69527;SDS011;57136;51.986;4.468;2022-07-24T14:51:49;3.28;;;2.75;;
69527;SDS011;57136;51.986;4.468;2022-07-24T14:54:15;4.25;;;2.72;;
69527;SDS011;57136;51.986;4.468;2022-07-24T14:56:40;3.10;;;2.50;;
69527;SDS011;57136;51.986;4.468;2022-07-24T14:59:06;3.50;;;2.55;;
69527;SDS011;57136;51.986;4.468;2022-07-24T15:01:32;4.30;;;2.78;;
69527;SDS011;57136;51.986;4.468;2022-07-24T15:03:57;5.40;;;2.83;;
69527;SDS011;57136;51.986;4.468;2022-07-24T15:06:23;4.13;;;2.70;;
69527;SDS011;57136;51.986;4.468;2022-07-24T15:08:48;4.55;;;2.90;;
69527;SDS011;57136;51.986;4.468;2022-07-24T15:11:14;5.15;;;2.85;;
69527;SDS011;57136;51.986;4.468;2022-07-24T15:13:39;3.30;;;3.00;;
69527;SDS011;57136;51.986;4.468;2022-07-24T15:16:07;3.70;;;2.92;;
69527;SDS011;57136;51.986;4.468;2022-07-24T15:18:33;5.07;;;2.92;;
69527;SDS011;57136;51.986;4.468;2022-07-24T15:20:59;3.72;;;2.80;;
69527;SDS011;57136;51.986;4.468;2022-07-24T15:23:24;4.10;;;3.03;;
69527;SDS011;57136;51.986;4.468;2022-07-24T15:25:50;4.47;;;3.10;;
69527;SDS011;57136;51.986;4.468;2022-07-24T15:28:15;3.40;;;2.80;;
69527;SDS011;57136;51.986;4.468;2022-07-24T15:30:40;3.33;;;2.53;;